»·PEaware :: N629J KSAN-KAVX

N629J :: KSAN-KAVX

FLIGHT INFORMATION

Flight Status: Arrived
Operator: Privately registered:
United States
More flights under this callsign
Pilot: Thiago S. (19132)
Aircraft: BEECH AIRCRAFT A90-E90 KING AIR
(BE9L)
More flights by this aircraft type
Origin: KSAN San Diego Intl-Lindbergh
United States
Destination: KAVX Catalina
United States
More flights between these airports :: More routes between these airports
Route: PEBLE6 SXC
File this flight plan on PilotEdge
Remarks:
Altitude:
(Current/Filed)
8,000ft
Speed:
(Current/Filed)
210kts
Departed: 21-Feb-19 12:00 PM
Arrived: 21-Feb-19 12:35 PM
Distance/Time
Traveled:
74nm/0:35
Distance/Time
To Go:
Arrived

Flight Plot

Page will automatically refresh every two minutes.

Flight plan parsing failed; only flown route is shown


Map Options




Map Legend


Flown Route
Filed Route
Departure Airport
Arrival Airport
Navaid (VOR, NDB)
Fix

Horizontal Profiles

Position Reports

Time Latitude Longitude Heading Altitude Ground
Speed
21-Feb-19 11:31 32.731823 -117.175708 11 20ft 0kts
21-Feb-19 11:32 32.731823 -117.175708 11 20ft 0kts
21-Feb-19 11:33 32.731823 -117.175708 11 20ft 0kts
21-Feb-19 11:34 32.731823 -117.175708 11 20ft 0kts
21-Feb-19 11:35 32.731823 -117.175708 11 20ft 0kts
21-Feb-19 11:36 32.731823 -117.175708 11 20ft 0kts
21-Feb-19 11:37 32.731823 -117.175708 11 20ft 0kts
21-Feb-19 11:38 32.731823 -117.175708 11 20ft 0kts
21-Feb-19 11:39 32.731823 -117.175707 11 20ft 0kts
21-Feb-19 11:40 32.731825 -117.175707 11 20ft 0kts
21-Feb-19 11:41 32.731827 -117.175707 11 20ft 0kts
21-Feb-19 11:42 32.731829 -117.175706 11 20ft 0kts
21-Feb-19 11:43 32.731831 -117.175706 11 20ft 0kts
21-Feb-19 11:44 32.731833 -117.175705 11 20ft 0kts
21-Feb-19 11:45 32.731839 -117.175884 194 20ft 1kts
21-Feb-19 11:46 32.731827 -117.175889 196 20ft 0kts
21-Feb-19 11:47 32.731823 -117.175890 196 20ft 0kts
21-Feb-19 11:48 32.731820 -117.175891 196 20ft 0kts
21-Feb-19 11:49 32.731816 -117.175893 196 20ft 0kts
21-Feb-19 11:50 32.731813 -117.175894 196 20ft 0kts
21-Feb-19 11:51 32.731809 -117.175895 196 20ft 0kts
21-Feb-19 11:52 32.731806 -117.175896 196 20ft 0kts
21-Feb-19 11:54 32.731803 -117.175897 196 20ft 0kts
21-Feb-19 11:55 32.731799 -117.175899 196 20ft 0kts
21-Feb-19 11:56 32.731796 -117.175900 196 20ft 0kts
21-Feb-19 11:57 32.731710 -117.175930 196 20ft 3kts
21-Feb-19 11:58 32.730954 -117.175595 137 20ft 0kts
21-Feb-19 11:59 32.730940 -117.175579 137 20ft 1kts
21-Feb-19 12:00 32.732196 -117.183988 283 21ft 103kts
21-Feb-19 12:01 32.747293 -117.218454 306 1469ft 128kts
21-Feb-19 12:02 32.770582 -117.251598 304 2851ft 137kts
21-Feb-19 12:03 32.795844 -117.287830 304 4083ft 146kts
21-Feb-19 12:04 32.822464 -117.325712 304 5304ft 150kts
21-Feb-19 12:05 32.849531 -117.363345 305 6494ft 150kts
21-Feb-19 12:06 32.876483 -117.401095 304 7693ft 148kts
21-Feb-19 12:07 32.905179 -117.442216 304 8102ft 181kts
21-Feb-19 12:08 32.948726 -117.479164 329 8085ft 203kts
21-Feb-19 12:09 32.981182 -117.529659 297 8078ft 192kts
21-Feb-19 12:10 33.012722 -117.581005 305 8081ft 192kts
21-Feb-19 12:11 33.047335 -117.629265 306 8082ft 191kts
21-Feb-19 12:12 33.080446 -117.678709 303 8082ft 191kts
21-Feb-19 12:13 33.112635 -117.729235 303 8082ft 190kts
21-Feb-19 12:13 33.139271 -117.771181 303 8080ft 190kts
21-Feb-19 12:15 33.176610 -117.830066 303 8099ft 189kts
21-Feb-19 12:16 33.194373 -117.887416 283 8159ft 186kts
21-Feb-19 12:16 33.207468 -117.934180 289 8156ft 188kts
21-Feb-19 12:17 33.231344 -117.997535 292 6927ft 217kts
21-Feb-19 12:18 33.254269 -118.061299 290 6429ft 204kts
21-Feb-19 12:19 33.275025 -118.124222 289 5942ft 202kts
21-Feb-19 12:20 33.296303 -118.187110 289 5437ft 203kts
21-Feb-19 12:21 33.316486 -118.247095 293 4963ft 203kts
21-Feb-19 12:22 33.337800 -118.309849 291 4458ft 203kts
21-Feb-19 12:23 33.358929 -118.372061 290 4151ft 197kts
21-Feb-19 12:24 33.384499 -118.427276 333 4115ft 198kts
21-Feb-19 12:25 33.440435 -118.417041 10 3643ft 213kts
21-Feb-19 12:26 33.497238 -118.406338 347 3510ft 201kts
21-Feb-19 12:27 33.537231 -118.448542 308 3554ft 193kts
21-Feb-19 12:28 33.579673 -118.475620 31 3544ft 199kts
21-Feb-19 12:29 33.570533 -118.419549 136 3098ft 203kts
21-Feb-19 12:30 33.525926 -118.394352 183 2492ft 159kts
21-Feb-19 12:31 33.489371 -118.403037 193 2454ft 133kts
21-Feb-19 12:32 33.452716 -118.408608 188 2439ft 120kts
21-Feb-19 12:33 33.421926 -118.401947 176 2076ft 113kts
21-Feb-19 12:34 33.404506 -118.416660 232 1607ft 18kts
21-Feb-19 12:35 33.403542 -118.416395 118 1607ft 0kts
21-Feb-19 12:36 33.403757 -118.415454 53 1607ft 2kts
21-Feb-19 12:37 33.403772 -118.414895 245 1607ft 0kts
21-Feb-19 12:38 33.403764 -118.414932 260 1607ft 0kts
21-Feb-19 12:39 33.403764 -118.414932 260 1607ft 0kts
21-Feb-19 12:40 33.403777 -118.414837 260 1607ft 0kts
21-Feb-19 12:41 33.403777 -118.414837 260 1607ft 0kts
21-Feb-19 12:42 33.403777 -118.414837 260 1607ft 0kts
21-Feb-19 12:43 33.403777 -118.414837 260 1607ft 0kts
21-Feb-19 12:44 33.403777 -118.414837 260 1607ft 0kts
21-Feb-19 12:45 33.403777 -118.414837 260 1607ft 0kts
21-Feb-19 12:46 33.403777 -118.414837 260 1607ft 0kts
21-Feb-19 12:47 33.403777 -118.414837 260 1607ft 0kts
21-Feb-19 12:48 33.403777 -118.414837 260 1607ft 0kts

Navigation Log

Ident Type
Flight plan parsing failed, navigation log unavailable